Time;durP1;ratioP1;P1;durP2;ratioP2;P2;SDS_P1;SDS_P2;PMS_P1;PMS_P2;Temp;Humidity;BMP_temperature;BMP_pressure;BME280_temperature;BME280_humidity;BME280_pressure;Samples;Min_cycle;Max_cycle;Signal;HPM_P1;HPM_P2
2021/01/14 00:00:36;;;;;;;12.43;4.35;;;24.70;90.00;;;;;;5015333;28;20036;-73
2021/01/14 00:03:11;;;;;;;11.52;4.57;;;24.70;89.90;;;;;;5014124;28;20402;-73
2021/01/14 00:05:39;;;;;;;8.13;3.75;;;24.50;90.50;;;;;;5015680;28;20034;-73
2021/01/14 00:08:07;;;;;;;9.40;4.40;;;24.30;91.20;;;;;;5015665;28;20033;-73
2021/01/14 00:10:36;;;;;;;8.77;3.65;;;24.70;90.40;;;;;;5013113;28;20593;-73
2021/01/14 00:13:07;;;;;;;8.40;3.42;;;24.80;90.20;;;;;;5014331;28;20513;-74
2021/01/14 00:15:33;;;;;;;;;;;24.80;90.90;;;;;;5014945;28;20042;-74
2021/01/14 00:18:00;;;;;;;5.38;2.42;;;24.60;90.90;;;;;;5014118;28;19909;-73
2021/01/14 00:20:28;;;;;;;3.45;2.08;;;24.30;91.30;;;;;;4996467;28;20033;-73
2021/01/14 00:22:55;;;;;;;3.22;1.50;;;24.00;92.10;;;;;;5014655;28;20030;-73
2021/01/14 00:25:22;;;;;;;3.03;1.42;;;23.30;92.90;;;;;;5015254;28;20037;-73
2021/01/14 00:27:51;;;;;;;2.78;1.13;;;22.90;93.90;;;;;;5014526;28;20041;-73
2021/01/14 00:30:26;;;;;;;1.33;0.90;;;22.00;95.40;;;;;;5015139;28;20041;-73
2021/01/14 00:32:53;;;;;;;1.77;0.95;;;21.40;97.40;;;;;;5014296;28;20041;-74
2021/01/14 00:35:20;;;;;;;2.25;1.00;;;21.20;98.10;;;;;;4996960;28;20061;-73
2021/01/14 00:37:50;;;;;;;3.40;1.40;;;21.00;98.80;;;;;;5015413;28;20034;-74
2021/01/14 00:40:18;;;;;;;3.37;1.10;;;20.70;99.50;;;;;;5013803;28;20038;-73
2021/01/14 00:42:45;;;;;;;2.33;1.00;;;20.50;99.90;;;;;;5015305;28;20267;-74
2021/01/14 00:45:13;;;;;;;1.60;1.10;;;20.20;99.90;;;;;;5014041;28;20045;-73
2021/01/14 00:47:40;;;;;;;3.63;1.00;;;19.90;99.90;;;;;;5013877;28;20080;-74
2021/01/14 00:50:07;;;;;;;3.63;1.20;;;19.80;99.90;;;;;;5014877;28;20033;-73
2021/01/14 00:52:34;;;;;;;3.15;0.90;;;19.50;99.90;;;;;;5014134;28;20518;-74
2021/01/14 00:55:01;;;;;;;4.25;1.02;;;19.30;99.90;;;;;;5014117;28;20383;-74
2021/01/14 00:57:28;;;;;;;3.22;1.33;;;19.10;99.90;;;;;;5014846;28;20486;-73
2021/01/14 00:59:55;;;;;;;2.25;0.90;;;18.60;99.90;;;;;;5014287;28;20052;-74
2021/01/14 01:02:22;;;;;;;2.30;1.00;;;18.50;99.90;;;;;;5014742;28;20029;-76
2021/01/14 01:04:49;;;;;;;6.22;1.15;;;18.20;99.90;;;;;;4997252;28;20018;-74
2021/01/14 01:07:16;;;;;;;2.92;1.08;;;18.00;99.90;;;;;;5014389;28;20030;-74
2021/01/14 01:09:42;;;;;;;3.80;1.48;;;17.70;99.90;;;;;;5014868;28;20030;-74
2021/01/14 01:12:11;;;;;;;3.63;1.20;;;17.40;99.90;;;;;;5014704;28;20022;-74
2021/01/14 01:14:38;;;;;;;2.13;1.20;;;17.10;99.90;;;;;;4996404;28;20044;-74
2021/01/14 01:17:05;;;;;;;1.58;1.15;;;16.80;99.90;;;;;;4996224;28;20053;-73
2021/01/14 01:19:32;;;;;;;2.00;1.15;;;16.60;99.90;;;;;;5013484;28;20594;-74
2021/01/14 01:21:59;;;;;;;2.47;1.35;;;16.50;99.90;;;;;;4980363;28;20491;-74
2021/01/14 01:24:25;;;;;;;3.75;1.50;;;16.30;99.90;;;;;;5012892;28;20034;-73
2021/01/14 01:26:53;;;;;;;8.23;1.80;;;16.20;99.90;;;;;;5013925;28;20051;-73
2021/01/14 01:29:20;;;;;;;4.15;1.80;;;16.10;99.90;;;;;;5013677;28;20041;-75
2021/01/14 01:31:47;;;;;;;3.47;1.50;;;15.90;99.90;;;;;;4981566;28;20049;-74
2021/01/14 01:34:15;;;;;;;4.30;2.00;;;15.80;99.90;;;;;;5012582;28;20045;-74
2021/01/14 01:36:42;;;;;;;3.47;1.42;;;15.70;99.90;;;;;;5013837;28;20045;-73
2021/01/14 01:39:09;;;;;;;4.13;1.67;;;15.60;99.90;;;;;;5012307;28;20041;-74
2021/01/14 01:41:36;;;;;;;4.90;2.10;;;15.60;99.90;;;;;;5012843;28;20510;-73
2021/01/14 01:44:03;;;;;;;4.30;2.38;;;15.40;99.90;;;;;;4995204;28;20372;-73
2021/01/14 01:46:31;;;;;;;10.25;4.47;;;15.30;99.90;;;;;;5013575;28;20029;-74
2021/01/14 01:48:59;;;;;;;8.15;3.38;;;15.30;99.90;;;;;;4994882;28;20034;-74
2021/01/14 01:51:33;;;;;;;8.95;3.38;;;15.20;99.90;;;;;;5012508;28;20483;-74
2021/01/14 01:54:01;;;;;;;6.10;3.28;;;15.10;99.90;;;;;;5013092;28;20386;-75
2021/01/14 01:56:29;;;;;;;5.78;3.65;;;15.10;99.90;;;;;;5013370;28;20046;-75
2021/01/14 01:58:58;;;;;;;8.73;3.78;;;15.10;99.90;;;;;;5013606;28;20022;-76
2021/01/14 02:01:27;;;;;;;8.25;4.85;;;15.00;99.90;;;;;;5009504;28;20024;-76
2021/01/14 02:03:54;;;;;;;10.85;4.15;;;15.00;99.90;;;;;;5013176;28;20038;-74
2021/01/14 02:06:22;;;;;;;8.77;4.70;;;15.00;99.90;;;;;;5011977;28;20041;-73
2021/01/14 02:08:54;;;;;;;11.65;4.53;;;14.90;99.90;;;;;;4995161;28;20042;-76
2021/01/14 02:11:38;;;;;;;10.60;4.15;;;14.90;99.90;;;;;;5011942;28;20034;-75
2021/01/14 02:14:24;;;;;;;8.52;4.40;;;14.80;99.90;;;;;;5013058;28;20030;-73
2021/01/14 02:16:53;;;;;;;10.02;4.75;;;14.80;99.90;;;;;;5013176;28;20042;-77
2021/01/14 02:19:42;;;;;;;7.55;4.50;;;14.80;99.90;;;;;;5012470;28;20030;-74
2021/01/14 02:22:23;;;;;;;9.15;4.82;;;14.80;99.90;;;;;;5013071;28;20033;-73
2021/01/14 02:25:16;;;;;;;7.72;4.03;;;14.80;99.90;;;;;;5012588;28;20022;-72
2021/01/14 02:27:45;;;;;;;8.60;3.88;;;14.70;99.90;;;;;;5013131;28;20029;-73
2021/01/14 02:30:13;;;;;;;11.90;4.38;;;14.70;99.90;;;;;;5012708;28;20030;-74
2021/01/14 02:32:44;;;;;;;6.38;4.00;;;14.70;99.90;;;;;;5013122;28;20374;-73
2021/01/14 02:35:11;;;;;;;9.38;4.38;;;14.60;99.90;;;;;;5012725;28;20026;-74
2021/01/14 02:37:38;;;;;;;7.95;4.95;;;14.60;99.90;;;;;;4994474;28;20406;-75
2021/01/14 02:40:06;;;;;;;8.00;4.15;;;14.70;99.90;;;;;;5012255;28;20029;-75
2021/01/14 02:42:33;;;;;;;7.40;4.57;;;14.70;99.90;;;;;;5012183;28;20030;-73
2021/01/14 02:45:00;;;;;;;6.70;4.40;;;14.70;99.90;;;;;;5012199;28;20046;-74
2021/01/14 02:47:28;;;;;;;9.80;4.55;;;14.70;99.90;;;;;;5012403;28;20022;-73
2021/01/14 02:49:58;;;;;;;8.05;4.95;;;14.60;99.90;;;;;;4995385;28;20058;-74
2021/01/14 02:52:27;;;;;;;9.75;5.22;;;14.60;99.90;;;;;;5012293;28;20030;-75
2021/01/14 02:54:56;;;;;;;8.57;5.20;;;14.60;99.90;;;;;;4993879;28;20487;-75
2021/01/14 02:57:29;;;;;;;8.95;5.65;;;14.60;99.90;;;;;;5012042;28;20053;-75
2021/01/14 02:59:56;;;;;;;10.95;6.88;;;14.50;99.90;;;;;;5011562;28;20382;-73
2021/01/14 03:02:23;;;;;;;14.18;8.52;;;14.40;99.90;;;;;;5011188;28;20549;-74
2021/01/14 03:04:50;;;;;;;14.18;8.52;;;14.40;99.90;;;;;;5011997;28;20021;-74
2021/01/14 03:07:17;;;;;;;15.43;9.25;;;14.30;99.90;;;;;;5012325;28;20034;-73
2021/01/14 03:09:44;;;;;;;17.58;10.77;;;14.30;99.90;;;;;;4993942;28;20490;-73
2021/01/14 03:12:14;;;;;;;16.23;10.95;;;14.20;99.90;;;;;;5011813;28;20038;-74
2021/01/14 03:14:41;;;;;;;20.75;11.90;;;14.20;99.90;;;;;;5011150;28;20377;-74
2021/01/14 03:17:08;;;;;;;18.73;11.88;;;14.10;99.90;;;;;;5011687;28;20038;-73
2021/01/14 03:19:34;;;;;;;24.70;14.07;;;14.10;99.90;;;;;;5011699;28;20026;-75
2021/01/14 03:22:02;;;;;;;19.60;13.52;;;14.00;99.90;;;;;;5011665;28;20042;-77
2021/01/14 03:24:29;;;;;;;29.70;15.20;;;13.90;99.90;;;;;;4993905;28;20050;-74
2021/01/14 03:26:56;;;;;;;26.65;16.77;;;13.80;99.90;;;;;;4993478;28;20482;-73
2021/01/14 03:29:23;;;;;;;29.35;16.35;;;13.70;99.90;;;;;;5011855;28;20727;-73
2021/01/14 03:31:50;;;;;;;29.05;18.77;;;13.70;99.90;;;;;;5011432;28;20037;-73
2021/01/14 03:34:17;;;;;;;37.70;23.23;;;13.60;99.90;;;;;;4993891;28;20064;-73
2021/01/14 03:37:02;;;;;;;35.75;23.48;;;13.50;99.90;;;;;;4993070;28;20397;-73
2021/01/14 03:39:30;;;;;;;42.20;24.90;;;13.50;99.90;;;;;;5010608;28;20037;-73
2021/01/14 03:41:58;;;;;;;47.78;25.88;;;13.40;99.90;;;;;;4993802;28;20375;-81
2021/01/14 03:44:25;;;;;;;36.70;23.55;;;13.40;99.90;;;;;;5011772;28;20049;-80
2021/01/14 03:46:52;;;;;;;42.25;27.67;;;13.30;99.90;;;;;;5011405;28;20033;-77
2021/01/14 03:49:19;;;;;;;45.38;29.13;;;13.30;99.90;;;;;;5010715;28;20379;-80
2021/01/14 03:51:48;;;;;;;48.42;31.75;;;13.20;99.90;;;;;;5011457;28;20037;-79
2021/01/14 03:54:20;;;;;;;46.58;30.48;;;13.10;99.90;;;;;;5010605;28;20042;-80
2021/01/14 03:56:48;;;;;;;47.38;31.30;;;13.10;99.90;;;;;;4993479;28;20525;-81
2021/01/14 03:59:15;;;;;;;47.42;32.22;;;13.00;99.90;;;;;;4993174;28;20042;-82
2021/01/14 04:01:42;;;;;;;53.08;32.28;;;13.00;99.90;;;;;;4993755;28;20447;-74
2021/01/14 04:04:09;;;;;;;50.00;32.10;;;12.90;99.90;;;;;;5011720;28;20393;-81
2021/01/14 04:06:37;;;;;;;54.70;34.10;;;12.90;99.90;;;;;;5011563;28;20037;-81
2021/01/14 04:09:06;;;;;;;49.38;34.17;;;12.80;99.90;;;;;;5009661;28;20018;-79
2021/01/14 04:11:33;;;;;;;51.03;32.58;;;12.70;99.90;;;;;;5012268;28;20422;-81
2021/01/14 04:14:00;;;;;;;49.47;31.85;;;12.70;99.90;;;;;;5011429;28;20030;-81
2021/01/14 04:16:27;;;;;;;51.20;33.22;;;12.70;99.90;;;;;;5011421;28;20033;-81
2021/01/14 04:18:54;;;;;;;51.97;32.92;;;12.60;99.90;;;;;;4993209;28;20398;-79
2021/01/14 04:21:21;;;;;;;50.40;32.65;;;12.50;99.90;;;;;;5011928;28;20033;-78
2021/01/14 04:23:48;;;;;;;52.30;33.78;;;12.40;99.90;;;;;;5011768;28;20030;-77
2021/01/14 04:26:17;;;;;;;50.53;33.33;;;12.40;99.90;;;;;;4993902;28;20026;-82
2021/01/14 04:28:44;;;;;;;52.58;33.42;;;12.40;99.90;;;;;;5010983;28;20482;-77
2021/01/14 04:31:13;;;;;;;55.63;32.40;;;12.30;99.90;;;;;;5011492;28;20374;-76
2021/01/14 04:33:49;;;;;;;59.60;33.75;;;12.20;99.90;;;;;;5011367;28;20030;-76
2021/01/14 04:36:16;;;;;;;56.20;35.08;;;12.20;99.90;;;;;;4992806;28;20046;-76
2021/01/14 04:38:43;;;;;;;58.90;37.35;;;12.10;99.90;;;;;;5011290;28;20033;-77
2021/01/14 04:41:11;;;;;;;52.83;34.78;;;12.10;99.90;;;;;;5011813;28;20038;-81
2021/01/14 04:43:42;;;;;;;50.78;32.58;;;12.00;99.90;;;;;;5014763;28;20022;-78
2021/01/14 04:46:11;;;;;;;54.53;33.92;;;12.00;99.90;;;;;;4997268;28;20701;-76
2021/01/14 04:48:38;;;;;;;62.83;35.67;;;11.90;99.90;;;;;;5014506;28;20479;-76
2021/01/14 04:51:14;;;;;;;52.63;33.22;;;11.90;99.90;;;;;;5014680;28;20042;-76
2021/01/14 04:53:46;;;;;;;55.85;35.85;;;11.80;99.90;;;;;;5014536;28;20037;-75
2021/01/14 04:56:18;;;;;;;57.22;34.60;;;11.80;99.90;;;;;;5014565;28;20045;-78
2021/01/14 04:58:49;;;;;;;47.03;31.65;;;11.80;99.90;;;;;;5013395;28;20044;-73
2021/01/14 05:01:28;;;;;;;52.97;33.13;;;11.70;99.90;;;;;;5014531;28;20029;-76
2021/01/14 05:03:57;;;;;;;48.67;33.67;;;11.70;99.90;;;;;;4994194;28;20038;-78
2021/01/14 05:06:24;;;;;;;52.88;33.03;;;11.60;99.90;;;;;;4994991;28;20037;-79
2021/01/14 05:09:01;;;;;;;52.63;33.97;;;11.60;99.90;;;;;;5014355;28;20033;-77
2021/01/14 05:11:36;;;;;;;51.60;32.03;;;11.60;99.90;;;;;;5014691;28;20041;-79
2021/01/14 05:14:03;;;;;;;51.38;31.98;;;11.60;99.90;;;;;;4994113;28;20054;-76
2021/01/14 05:16:30;;;;;;;50.05;33.53;;;11.50;99.90;;;;;;4994609;28;20038;-79
2021/01/14 05:19:00;;;;;;;47.92;32.33;;;11.40;99.90;;;;;;4995849;28;20496;-81
2021/01/14 05:21:32;;;;;;;55.15;34.78;;;11.50;99.90;;;;;;4996568;28;20038;-78
2021/01/14 05:24:16;;;;;;;53.78;33.65;;;11.40;99.90;;;;;;5014317;28;20105;-79
2021/01/14 05:26:47;;;;;;;50.15;33.58;;;11.40;99.90;;;;;;5013638;28;20045;-78
2021/01/14 05:29:18;;;;;;;51.77;34.77;;;11.30;99.90;;;;;;4996794;28;20038;-74
2021/01/14 05:31:46;;;;;;;57.08;35.70;;;11.40;99.90;;;;;;5014024;28;20602;-77
2021/01/14 05:34:14;;;;;;;49.80;33.33;;;11.30;99.90;;;;;;5012631;28;20042;-82
2021/01/14 05:37:03;;;;;;;51.42;33.53;;;11.30;99.90;;;;;;5013768;28;20474;-78
2021/01/14 05:39:31;;;;;;;40.22;31.15;;;11.30;99.90;;;;;;5011486;28;20046;-81
2021/01/14 05:42:09;;;;;;;46.88;32.25;;;11.30;99.90;;;;;;5014147;28;20029;-81
2021/01/14 05:44:44;;;;;;;44.17;31.60;;;11.30;99.90;;;;;;4994704;28;20073;-77
2021/01/14 05:47:22;;;;;;;52.38;33.15;;;11.30;99.90;;;;;;4995729;28;20026;-79
2021/01/14 05:50:05;;;;;;;45.65;32.03;;;11.30;99.90;;;;;;4976203;28;20038;-80
2021/01/14 05:52:33;;;;;;;50.80;31.08;;;11.30;99.90;;;;;;4997424;28;20034;-78
2021/01/14 05:55:05;;;;;;;46.85;32.92;;;11.30;99.90;;;;;;5011743;28;20510;-81
2021/01/14 05:57:34;;;;;;;44.97;31.35;;;11.20;99.90;;;;;;5013297;28;20034;-80
2021/01/14 06:00:09;;;;;;;40.78;30.27;;;11.20;99.90;;;;;;4995030;28;20030;-81
2021/01/14 06:02:36;;;;;;;42.25;30.13;;;11.20;99.90;;;;;;5013263;28;20030;-80
2021/01/14 06:05:03;;;;;;;44.60;29.88;;;11.20;99.90;;;;;;5013570;28;20026;-75
2021/01/14 06:07:40;;;;;;;44.58;29.75;;;11.20;99.90;;;;;;4995199;28;20046;-77
2021/01/14 06:10:09;;;;;;;42.58;30.65;;;11.20;99.90;;;;;;5013523;28;20026;-81
2021/01/14 06:12:48;;;;;;;39.95;28.08;;;11.20;99.90;;;;;;5012165;28;20033;-74
2021/01/14 06:15:16;;;;;;;41.08;28.48;;;11.20;99.90;;;;;;5013307;28;20025;-74
2021/01/14 06:17:44;;;;;;;39.17;29.60;;;11.20;99.90;;;;;;5012855;28;20042;-76
2021/01/14 06:20:12;;;;;;;40.72;28.48;;;11.10;99.90;;;;;;5012728;28;20029;-80
2021/01/14 06:22:39;;;;;;;42.15;27.90;;;11.10;99.90;;;;;;5013069;28;20060;-75
2021/01/14 06:25:07;;;;;;;38.83;27.15;;;11.20;99.90;;;;;;5012789;28;20022;-75
2021/01/14 06:27:35;;;;;;;33.70;24.88;;;11.20;99.90;;;;;;5012632;28;20048;-76
2021/01/14 06:30:07;;;;;;;37.83;24.80;;;11.20;99.90;;;;;;5007687;28;20038;-81
2021/01/14 06:32:43;;;;;;;33.85;24.10;;;11.20;99.90;;;;;;5012320;28;20053;-77
2021/01/14 06:35:10;;;;;;;33.17;23.92;;;11.20;99.90;;;;;;5012078;28;20036;-77
2021/01/14 06:37:38;;;;;;;35.70;23.45;;;11.20;99.90;;;;;;5012635;28;20046;-77
2021/01/14 06:40:07;;;;;;;33.28;23.27;;;11.30;99.90;;;;;;5012398;28;20030;-75
2021/01/14 06:42:37;;;;;;;30.60;21.23;;;11.30;99.90;;;;;;5011598;28;20050;-78
2021/01/14 06:45:12;;;;;;;29.00;21.17;;;11.30;99.90;;;;;;4993641;28;20368;-80
2021/01/14 06:47:46;;;;;;;29.77;19.83;;;11.30;99.90;;;;;;5012489;28;20049;-75
2021/01/14 06:50:19;;;;;;;29.73;20.17;;;11.30;99.90;;;;;;5012371;28;20033;-80
2021/01/14 06:53:03;;;;;;;26.70;17.88;;;11.30;99.90;;;;;;5012359;28;20485;-75
2021/01/14 06:55:34;;;;;;;24.00;17.48;;;11.40;99.90;;;;;;5011494;28;20038;-80
2021/01/14 06:58:14;;;;;;;24.27;18.00;;;11.40;99.90;;;;;;5012388;28;20371;-76
2021/01/14 07:00:46;;;;;;;22.05;16.52;;;11.40;99.90;;;;;;5011827;28;20041;-77
2021/01/14 07:03:13;;;;;;;24.23;15.88;;;11.40;99.90;;;;;;5012129;28;20386;-74
2021/01/14 07:05:55;;;;;;;22.80;15.85;;;11.40;99.90;;;;;;5012328;28;20173;-74
2021/01/14 07:08:36;;;;;;;23.10;16.75;;;11.40;99.90;;;;;;5012022;28;20037;-83
2021/01/14 07:11:16;;;;;;;22.40;16.50;;;11.40;99.90;;;;;;4994778;28;20042;-77
2021/01/14 07:13:53;;;;;;;22.13;15.45;;;11.40;99.90;;;;;;5011241;28;20030;-77
2021/01/14 07:16:22;;;;;;;24.77;16.73;;;11.40;99.90;;;;;;5012092;28;20355;-76
2021/01/14 07:18:51;;;;;;;21.90;16.00;;;11.40;99.90;;;;;;5012049;28;20033;-77
2021/01/14 07:21:35;;;;;;;20.65;15.60;;;11.40;99.90;;;;;;5012103;28;20030;-77
2021/01/14 07:24:29;;;;;;;18.33;14.68;;;11.30;99.90;;;;;;5011569;28;20063;-74
2021/01/14 07:26:58;;;;;;;24.95;15.70;;;11.30;99.90;;;;;;4992652;28;20034;-75
2021/01/14 07:29:29;;;;;;;24.92;15.50;;;11.40;99.90;;;;;;4992479;28;20031;-76
2021/01/14 07:31:57;;;;;;;;;;;11.40;99.90;;;;;;4995496;28;20029;-78
2021/01/14 07:34:35;;;;;;;22.75;13.82;;;11.30;99.90;;;;;;5011436;28;19906;-80
2021/01/14 07:37:03;;;;;;;17.90;14.50;;;11.30;99.90;;;;;;5011897;28;20030;-80
2021/01/14 07:39:53;;;;;;;19.02;14.82;;;11.30;99.90;;;;;;4992520;28;20120;-76
2021/01/14 07:42:24;;;;;;;20.75;15.00;;;11.30;99.90;;;;;;5011067;28;20046;-76
2021/01/14 07:44:55;;;;;;;23.65;13.48;;;11.30;99.90;;;;;;5012035;28;20052;-77
2021/01/14 07:47:34;;;;;;;17.67;13.60;;;11.30;99.90;;;;;;5011706;28;20034;-77
2021/01/14 07:50:21;;;;;;;16.13;11.35;;;11.30;99.90;;;;;;4992151;28;20030;-76
2021/01/14 07:52:50;;;;;;;16.48;11.98;;;11.30;99.90;;;;;;4992399;28;20037;-75
2021/01/14 07:55:32;;;;;;;16.33;12.27;;;11.40;99.90;;;;;;5010948;28;20037;-75
2021/01/14 07:58:20;;;;;;;17.63;12.32;;;11.30;99.90;;;;;;4990421;28;20050;-78
2021/01/14 08:01:01;;;;;;;17.70;12.38;;;11.30;99.90;;;;;;4983906;28;20041;-76
2021/01/14 08:03:37;;;;;;;17.83;11.30;;;11.40;99.90;;;;;;5010621;28;20517;-75
2021/01/14 08:06:27;;;;;;;17.30;11.15;;;11.40;99.90;;;;;;5009146;28;20037;-76
2021/01/14 08:08:55;;;;;;;12.52;9.10;;;11.40;99.90;;;;;;5009469;28;20049;-77
2021/01/14 08:11:25;;;;;;;13.93;10.60;;;11.40;99.90;;;;;;5011371;28;20033;-74
2021/01/14 08:14:18;;;;;;;19.77;10.30;;;11.40;99.90;;;;;;5011908;28;20041;-75
2021/01/14 08:16:52;;;;;;;14.23;9.68;;;11.50;99.90;;;;;;5012417;28;20529;-78
2021/01/14 08:19:20;;;;;;;15.93;10.52;;;11.40;99.90;;;;;;4996916;28;20041;-74
2021/01/14 08:22:02;;;;;;;12.40;8.55;;;11.50;99.90;;;;;;5010101;28;20375;-75
2021/01/14 08:24:41;;;;;;;13.13;9.30;;;11.40;99.90;;;;;;4995425;28;20053;-75
2021/01/14 08:27:10;;;;;;;12.13;8.18;;;11.40;99.90;;;;;;5013976;28;20045;-73
2021/01/14 08:29:51;;;;;;;14.45;8.90;;;11.40;99.90;;;;;;5015270;28;20057;-77
2021/01/14 08:32:46;;;;;;;10.73;8.20;;;11.50;99.90;;;;;;5011565;28;20034;-79
2021/01/14 08:35:16;;;;;;;10.07;7.97;;;11.50;99.90;;;;;;5014747;28;20026;-78
2021/01/14 08:37:52;;;;;;;12.20;8.65;;;11.50;99.90;;;;;;5013964;28;20543;-77
2021/01/14 08:40:40;;;;;;;9.25;7.85;;;11.50;99.90;;;;;;5013390;28;20033;-72
2021/01/14 08:43:11;;;;;;;14.93;8.52;;;11.50;99.90;;;;;;5014745;28;20471;-75
2021/01/14 08:45:47;;;;;;;9.90;7.63;;;11.50;99.90;;;;;;5014842;28;20052;-75
2021/01/14 08:48:30;;;;;;;9.88;8.02;;;11.50;99.90;;;;;;5014636;28;20034;-74
2021/01/14 08:50:58;;;;;;;10.38;7.13;;;11.40;99.90;;;;;;5014863;28;20014;-74
2021/01/14 08:53:35;;;;;;;10.38;7.65;;;11.40;99.90;;;;;;5014108;28;20042;-73
2021/01/14 08:56:07;;;;;;;11.25;7.53;;;11.40;99.90;;;;;;5014065;28;20049;-77
2021/01/14 08:58:50;;;;;;;11.00;7.07;;;11.40;99.90;;;;;;5014416;28;20054;-72
2021/01/14 09:01:22;;;;;;;11.65;8.00;;;11.30;99.90;;;;;;4994307;28;20034;-77
2021/01/14 09:03:52;;;;;;;9.15;7.43;;;11.30;99.90;;;;;;4994230;28;20049;-74
2021/01/14 09:06:38;;;;;;;8.73;7.25;;;11.30;99.90;;;;;;4994677;28;20023;-77
2021/01/14 09:09:10;;;;;;;12.20;7.32;;;11.30;99.90;;;;;;5001166;28;20038;-75
2021/01/14 09:11:38;;;;;;;9.93;6.75;;;11.30;99.90;;;;;;5001141;28;20034;-74
2021/01/14 09:14:15;;;;;;;7.93;6.22;;;11.30;99.90;;;;;;5013776;28;20390;-74
2021/01/14 09:16:44;;;;;;;8.65;7.18;;;11.30;99.90;;;;;;4994793;28;20378;-74
2021/01/14 09:19:19;;;;;;;12.02;6.85;;;11.30;99.90;;;;;;5003067;28;20041;-73
2021/01/14 09:21:47;;;;;;;7.93;6.60;;;11.30;99.90;;;;;;5012449;28;20064;-75
2021/01/14 09:24:16;;;;;;;9.38;6.65;;;11.30;99.90;;;;;;5014032;28;20034;-74
2021/01/14 09:26:47;;;;;;;8.10;6.70;;;11.30;99.90;;;;;;5013732;28;20029;-70
2021/01/14 09:29:15;;;;;;;;;;;11.40;99.90;;;;;;5012787;28;21436;-71
2021/01/14 09:31:43;;;;;;;6.97;6.28;;;11.50;99.90;;;;;;5013415;28;20468;-75
2021/01/14 09:34:10;;;;;;;7.28;6.25;;;11.50;99.90;;;;;;5013531;28;20030;-71
2021/01/14 09:36:37;;;;;;;6.78;5.95;;;11.50;99.90;;;;;;5012927;28;20037;-74
2021/01/14 09:39:06;;;;;;;6.88;5.57;;;11.50;99.90;;;;;;5013587;28;20048;-77
2021/01/14 09:41:36;;;;;;;8.73;5.25;;;11.50;99.90;;;;;;5013242;28;20033;-74
2021/01/14 09:44:06;;;;;;;6.43;5.20;;;11.50;99.90;;;;;;5013586;28;20042;-75
2021/01/14 09:46:36;;;;;;;6.53;5.07;;;11.50;99.90;;;;;;5012534;28;20057;-74
2021/01/14 09:49:09;;;;;;;6.88;5.07;;;11.50;99.90;;;;;;4995571;28;20045;-70
2021/01/14 09:51:37;;;;;;;5.00;4.38;;;11.50;99.90;;;;;;5013240;28;20383;-74
2021/01/14 09:54:06;;;;;;;11.32;5.38;;;11.50;99.90;;;;;;5013270;28;20038;-71
2021/01/14 09:56:34;;;;;;;7.47;4.82;;;11.50;99.90;;;;;;5013389;28;20486;-70
2021/01/14 09:59:18;;;;;;;6.35;5.00;;;11.40;99.90;;;;;;5013329;28;20034;-72
2021/01/14 10:01:52;;;;;;;6.63;4.97;;;11.40;99.90;;;;;;5012855;28;20056;-73
2021/01/14 10:04:24;;;;;;;7.72;4.32;;;11.40;99.90;;;;;;5012597;28;20092;-71
2021/01/14 10:07:06;;;;;;;5.53;4.22;;;11.40;99.90;;;;;;5013401;28;20026;-72
2021/01/14 10:09:36;;;;;;;5.18;4.10;;;11.40;99.90;;;;;;5012758;28;20029;-73
2021/01/14 10:12:08;;;;;;;6.18;4.63;;;11.40;99.90;;;;;;5013181;28;20367;-72
2021/01/14 10:14:35;;;;;;;7.82;3.90;;;11.50;99.90;;;;;;5009187;28;20029;-71
2021/01/14 10:17:11;;;;;;;4.28;3.58;;;11.50;99.90;;;;;;4993781;28;20030;-69
2021/01/14 10:19:43;;;;;;;5.15;3.78;;;11.40;99.90;;;;;;4994944;28;20045;-71
2021/01/14 10:22:10;;;;;;;4.80;3.53;;;11.40;99.90;;;;;;5012893;28;20032;-72
2021/01/14 10:24:36;;;;;;;5.90;3.40;;;11.50;99.90;;;;;;4995104;28;20038;-76
2021/01/14 10:27:16;;;;;;;5.75;3.50;;;11.40;99.90;;;;;;5012541;28;20038;-75
2021/01/14 10:29:44;;;;;;;3.60;3.10;;;11.40;99.90;;;;;;4993433;28;20021;-73
2021/01/14 10:32:16;;;;;;;3.40;2.83;;;11.40;99.90;;;;;;5004826;28;20038;-72
2021/01/14 10:34:53;;;;;;;6.72;3.72;;;11.50;99.90;;;;;;5012543;28;20041;-73
2021/01/14 10:37:30;;;;;;;3.17;2.83;;;11.50;99.90;;;;;;5011658;28;20041;-72
2021/01/14 10:40:04;;;;;;;4.10;2.65;;;11.50;99.90;;;;;;5012280;28;20335;-72
2021/01/14 10:42:38;;;;;;;3.60;2.78;;;11.50;99.90;;;;;;5012632;28;20026;-73
2021/01/14 10:45:12;;;;;;;4.45;2.80;;;11.50;99.90;;;;;;5012290;28;20046;-71
2021/01/14 10:47:40;;;;;;;3.45;2.28;;;11.60;99.90;;;;;;5010986;28;20041;-73
2021/01/14 10:50:23;;;;;;;3.80;2.63;;;11.50;99.90;;;;;;5012382;28;20033;-74
2021/01/14 10:53:03;;;;;;;5.18;2.63;;;11.60;99.90;;;;;;5012519;28;20041;-74
2021/01/14 10:55:31;;;;;;;6.13;2.42;;;11.60;99.90;;;;;;5011502;28;20410;-71
2021/01/14 10:58:00;;;;;;;3.33;2.45;;;11.60;99.90;;;;;;5011513;28;20394;-73
2021/01/14 11:00:33;;;;;;;3.15;2.20;;;11.60;99.90;;;;;;5012309;28;20018;-72
2021/01/14 11:03:12;;;;;;;3.45;2.45;;;11.60;99.90;;;;;;5011284;28;20046;-74
2021/01/14 11:05:52;;;;;;;4.82;2.40;;;11.60;99.90;;;;;;5011940;28;20036;-73
2021/01/14 11:08:20;;;;;;;4.45;2.35;;;11.70;99.90;;;;;;4994166;28;20038;-72
2021/01/14 11:11:02;;;;;;;4.57;3.03;;;11.60;99.90;;;;;;5012457;28;20029;-72
2021/01/14 11:13:48;;;;;;;2.85;2.15;;;11.60;99.90;;;;;;5012273;28;20037;-70
2021/01/14 11:16:19;;;;;;;3.85;2.22;;;11.60;99.90;;;;;;5007924;28;20046;-71
2021/01/14 11:18:49;;;;;;;4.07;2.10;;;11.60;99.90;;;;;;5010753;28;20053;-74
2021/01/14 11:21:18;;;;;;;2.83;1.73;;;11.60;99.90;;;;;;5012057;28;20136;-75
2021/01/14 11:23:45;;;;;;;4.53;1.55;;;11.60;99.90;;;;;;5011929;28;20478;-75
2021/01/14 11:26:19;;;;;;;2.70;1.80;;;11.60;99.90;;;;;;5012050;28;20026;-71
2021/01/14 11:28:47;;;;;;;3.00;1.60;;;11.60;99.90;;;;;;5011687;28;20037;-72
2021/01/14 11:31:21;;;;;;;2.17;1.60;;;11.60;99.90;;;;;;5008967;28;20488;-74
2021/01/14 11:33:48;;;;;;;2.22;1.55;;;11.70;99.90;;;;;;5011822;28;20521;-74
2021/01/14 11:36:19;;;;;;;3.05;1.38;;;11.70;99.90;;;;;;5011490;28;20018;-75
2021/01/14 11:38:46;;;;;;;5.75;1.60;;;11.70;99.90;;;;;;5010847;28;20050;-76
2021/01/14 11:41:21;;;;;;;2.50;1.67;;;11.70;99.90;;;;;;5011503;28;20049;-77
2021/01/14 11:43:48;;;;;;;3.47;1.90;;;11.70;99.90;;;;;;5011856;28;20041;-76
2021/01/14 11:46:20;;;;;;;4.32;1.50;;;11.70;99.90;;;;;;5011807;28;20094;-76
2021/01/14 11:48:48;;;;;;;2.03;1.23;;;11.70;99.90;;;;;;5011752;28;20467;-76
2021/01/14 11:51:14;;;;;;;1.58;1.25;;;11.70;99.90;;;;;;5010681;28;20042;-76
2021/01/14 11:53:41;;;;;;;3.60;1.65;;;11.70;99.90;;;;;;5015383;28;20036;-75
2021/01/14 11:56:08;;;;;;;1.88;1.10;;;11.70;99.90;;;;;;5015741;28;20034;-76
2021/01/14 11:58:36;;;;;;;2.80;1.50;;;11.70;99.90;;;;;;4997296;28;20046;-73
2021/01/14 12:01:03;;;;;;;1.27;1.10;;;11.70;99.90;;;;;;5014115;28;20065;-75
2021/01/14 12:03:31;;;;;;;1.40;0.88;;;11.70;99.90;;;;;;5015361;28;20038;-77
2021/01/14 12:05:58;;;;;;;1.73;0.88;;;11.80;99.90;;;;;;5014488;28;20041;-72
2021/01/14 12:08:25;;;;;;;2.75;1.38;;;11.70;99.90;;;;;;5015603;28;20030;-76
2021/01/14 12:10:52;;;;;;;1.38;1.20;;;11.70;99.90;;;;;;5015723;28;20040;-74
2021/01/14 12:13:18;;;;;;;0.95;0.80;;;11.70;99.90;;;;;;5011218;28;20540;-75
2021/01/14 12:15:49;;;;;;;2.30;1.10;;;11.70;99.90;;;;;;5015533;28;20048;-77
2021/01/14 12:18:16;;;;;;;1.83;1.20;;;11.80;99.90;;;;;;5015399;28;20057;-75
2021/01/14 12:20:43;;;;;;;2.65;1.20;;;11.80;99.90;;;;;;5015058;28;20477;-76
2021/01/14 12:23:09;;;;;;;3.45;1.35;;;11.90;99.90;;;;;;5014738;28;20041;-71
2021/01/14 12:25:36;;;;;;;2.70;1.00;;;11.90;99.90;;;;;;5015389;28;20033;-76
2021/01/14 12:28:03;;;;;;;4.20;1.77;;;11.90;99.90;;;;;;5014809;28;20029;-76
2021/01/14 12:30:30;;;;;;;1.35;0.77;;;11.90;99.90;;;;;;5014272;28;20042;-71
2021/01/14 12:32:57;;;;;;;2.75;0.90;;;11.80;99.90;;;;;;5014831;28;20021;-73
2021/01/14 12:35:27;;;;;;;2.25;0.90;;;11.90;99.90;;;;;;5014846;28;20163;-76
2021/01/14 12:37:54;;;;;;;4.32;1.25;;;11.90;99.90;;;;;;5014850;28;20030;-76
2021/01/14 12:40:20;;;;;;;1.35;0.80;;;11.80;99.90;;;;;;5015174;28;20061;-76
2021/01/14 12:42:50;;;;;;;1.10;0.82;;;11.70;99.90;;;;;;5014874;28;20029;-76
2021/01/14 12:45:19;;;;;;;4.22;1.30;;;11.80;99.90;;;;;;4993880;28;20046;-77
2021/01/14 12:47:46;;;;;;;1.17;0.80;;;11.80;99.90;;;;;;5013522;28;20053;-77
2021/01/14 12:50:14;;;;;;;1.73;0.90;;;11.80;99.90;;;;;;5013620;28;20030;-78
2021/01/14 12:52:41;;;;;;;1.00;0.90;;;11.80;99.90;;;;;;5013870;28;20509;-75
2021/01/14 12:55:11;;;;;;;1.05;0.85;;;11.80;99.90;;;;;;5014327;28;20069;-77
2021/01/14 12:57:38;;;;;;;1.48;0.90;;;11.80;99.90;;;;;;5013065;28;20041;-77